createdAt,value
2022-12-16T05:35:30.037Z,99992
2022-12-16T05:41:49.621Z,99994
2022-12-16T05:48:10.025Z,100009
2022-12-16T05:54:20.984Z,100012
2022-12-16T06:00:27.582Z,100020
2022-12-16T06:06:43.123Z,100034
2022-12-16T06:12:59.661Z,100041
2022-12-16T06:25:23.342Z,100060
2022-12-16T06:31:32.647Z,100070
2022-12-16T06:37:42.035Z,100076
2022-12-16T06:43:39.606Z,100100
2022-12-16T06:56:10.071Z,100116
2022-12-16T07:02:17.448Z,100116
2022-12-16T07:08:28.128Z,100130
2022-12-16T07:14:49.578Z,100135
2022-12-16T07:20:43.837Z,100141
2022-12-16T07:27:08.454Z,100146
2022-12-16T07:33:08.381Z,100149
2022-12-16T07:39:11.109Z,100174
2022-12-16T07:51:58.732Z,100199
2022-12-16T07:57:57.284Z,100211
2022-12-16T08:04:23.169Z,100216
2022-12-16T08:10:30.587Z,100227
2022-12-16T08:16:49.960Z,100233
2022-12-16T08:23:32.923Z,100244
2022-12-16T08:30:16.921Z,100244
2022-12-16T08:36:18.899Z,100240
2022-12-16T08:42:20.445Z,100255
2022-12-16T08:48:40.933Z,100263
2022-12-16T08:54:59.397Z,100263
2022-12-16T09:01:23.560Z,100269
2022-12-16T09:07:49.785Z,100267
2022-12-16T09:13:43.498Z,100280
2022-12-16T09:26:23.945Z,100284
2022-12-16T09:32:34.416Z,100288
2022-12-16T09:38:40.209Z,100295
2022-12-16T09:44:45.338Z,100293
2022-12-16T09:50:43.709Z,100304
2022-12-16T09:56:49.990Z,100309
2022-12-16T10:03:08.992Z,100311
2022-12-16T10:09:00.388Z,100318
2022-12-16T10:14:57.437Z,100318
2022-12-16T10:20:48.281Z,100323
2022-12-16T10:26:44.965Z,100326
2022-12-16T10:32:40.777Z,100325
2022-12-16T10:38:40.736Z,100323
2022-12-16T10:44:48.471Z,100326
2022-12-16T10:57:07.571Z,100331
2022-12-16T11:03:11.098Z,100343
2022-12-16T11:09:13.734Z,100347
2022-12-16T11:15:41.597Z,100350
2022-12-16T11:21:35.658Z,100337
2022-12-16T11:27:35.693Z,100341
2022-12-16T12:22:43.785Z,100353
2022-12-16T13:08:17.216Z,100379
2022-12-16T14:15:00.708Z,100432
2022-12-16T14:28:14.177Z,100449
2022-12-16T14:34:47.219Z,100461
2022-12-16T14:40:51.829Z,100455
2022-12-16T14:53:14.805Z,100472
2022-12-16T15:11:55.179Z,100500
2022-12-16T15:18:03.403Z,100506
2022-12-16T15:30:36.947Z,100528
2022-12-16T15:50:39.632Z,100573
2022-12-16T16:03:42.347Z,100601
2022-12-16T16:10:01.686Z,100598
2022-12-16T16:16:13.125Z,100611
2022-12-16T16:22:26.721Z,100621
2022-12-16T16:28:58.756Z,100619
2022-12-16T16:35:14.432Z,100630
2022-12-16T17:34:10.042Z,100708
2022-12-16T18:10:44.037Z,100763
2022-12-16T19:05:10.165Z,100808
2022-12-16T19:12:09.089Z,100806
2022-12-16T19:17:59.623Z,100816
2022-12-16T19:25:01.146Z,100831
2022-12-16T19:30:51.745Z,100833
2022-12-16T19:36:58.790Z,100840
2022-12-16T19:42:59.258Z,100835
2022-12-16T19:48:49.435Z,100838
2022-12-16T19:54:47.319Z,100846
2022-12-16T20:00:56.753Z,100856
2022-12-16T20:06:48.579Z,100863
2022-12-16T20:12:43.451Z,100873
2022-12-16T20:18:36.408Z,100866
2022-12-16T20:24:27.608Z,100869
2022-12-16T20:30:20.129Z,100880
2022-12-16T20:36:16.777Z,100885
2022-12-16T20:42:12.681Z,100894
2022-12-16T20:48:10.327Z,100893
2022-12-16T20:54:09.019Z,100903
2022-12-16T21:00:00.500Z,100905
2022-12-16T21:05:51.409Z,100913
2022-12-16T21:11:48.052Z,100927
2022-12-16T21:17:42.652Z,100927
2022-12-16T21:23:42.801Z,100929
2022-12-16T21:29:44.123Z,100938
2022-12-16T21:35:41.994Z,100945
2022-12-16T21:41:46.029Z,100952
2022-12-16T21:47:38.038Z,100960
2022-12-16T21:53:42.851Z,100972
2022-12-16T21:59:58.976Z,100984
2022-12-16T22:05:49.146Z,100982
2022-12-16T22:11:42.802Z,100996
2022-12-16T22:17:40.923Z,101000
2022-12-16T22:23:32.036Z,101010
2022-12-16T22:29:22.620Z,101014
2022-12-16T22:35:14.250Z,101024
2022-12-16T22:41:07.325Z,101033
2022-12-16T22:47:03.753Z,101027
2022-12-16T22:52:56.184Z,101035
2022-12-16T22:58:48.703Z,101042
2022-12-16T23:04:38.485Z,101051
2022-12-16T23:10:33.718Z,101041
2022-12-16T23:16:30.818Z,101036
2022-12-16T23:22:26.441Z,101041
2022-12-16T23:28:18.260Z,101049
2022-12-16T23:34:13.689Z,101048
2022-12-16T23:40:04.545Z,101051
2022-12-16T23:45:59.706Z,101062
2022-12-16T23:51:59.983Z,101066
2022-12-16T23:57:51.067Z,101070
